Time;durP1;ratioP1;P1;durP2;ratioP2;P2;SDS_P1;SDS_P2;PMS_P1;PMS_P2;Temp;Humidity;BMP_temperature;BMP_pressure;BME280_temperature;BME280_humidity;BME280_pressure;Samples;Min_cycle;Max_cycle;Signal;HPM_P1;HPM_P2
2022/04/22 00:00:27;;;;;;;;;4.75;4.00;;;;;-146.67;100.00;57155.34;5062875;28;62013;-84
2022/04/22 00:02:57;;;;;;;;;6.50;4.25;;;;;-146.67;100.00;57155.34;5062252;28;62406;-84
2022/04/22 00:05:23;;;;;;;;;5.75;4.75;;;;;-146.67;100.00;57155.34;5064120;28;61724;-83
2022/04/22 00:07:49;;;;;;;;;6.00;5.00;;;;;-146.67;100.00;57155.34;5063894;28;61714;-83
2022/04/22 00:10:15;;;;;;;;;8.50;6.25;;;;;-146.67;100.00;57155.34;5063779;28;61891;-83
2022/04/22 00:12:41;;;;;;;;;4.00;4.00;;;;;-146.67;100.00;57155.34;5063569;28;61826;-83
2022/04/22 00:15:07;;;;;;;;;10.00;6.25;;;;;-146.67;100.00;57155.34;5063774;28;62025;-84
2022/04/22 00:17:32;;;;;;;;;4.50;4.25;;;;;-146.67;100.00;57155.34;5063392;28;61811;-83
2022/04/22 00:19:58;;;;;;;;;5.00;5.00;;;;;-146.67;100.00;57155.34;5063965;28;61759;-83
2022/04/22 00:22:23;;;;;;;;;5.25;3.00;;;;;-146.67;100.00;57155.34;5062704;28;63291;-84
2022/04/22 00:24:49;;;;;;;;;8.75;5.00;;;;;-146.67;100.00;57155.34;5063633;28;61707;-83
2022/04/22 00:27:14;;;;;;;;;6.50;4.75;;;;;-146.67;100.00;57155.34;5079086;28;62088;-83
2022/04/22 00:29:40;;;;;;;;;9.25;5.50;;;;;-146.67;100.00;57155.34;5063736;28;61911;-84
2022/04/22 00:32:06;;;;;;;;;5.25;3.50;;;;;-146.67;100.00;57155.34;5062344;28;61870;-84
2022/04/22 00:34:31;;;;;;;;;4.25;4.25;;;;;-146.67;100.00;57155.34;5063504;28;61746;-83
2022/04/22 00:36:57;;;;;;;;;6.25;4.50;;;;;-146.67;100.00;57155.34;5062178;28;62247;-84
2022/04/22 00:39:22;;;;;;;;;5.25;4.25;;;;;-146.67;100.00;57155.34;5071473;28;62250;-83
2022/04/22 00:41:48;;;;;;;;;6.50;4.50;;;;;-146.67;100.00;57155.34;5083457;28;61788;-84
2022/04/22 00:44:13;;;;;;;;;5.75;3.75;;;;;-146.67;100.00;57155.34;5083703;28;61841;-84
2022/04/22 00:46:39;;;;;;;;;8.00;4.00;;;;;-146.67;100.00;57155.34;5083449;28;61753;-84
2022/04/22 00:49:04;;;;;;;;;6.00;5.00;;;;;-146.67;100.00;57155.34;5083722;28;62150;-83
2022/04/22 00:51:31;;;;;;;;;4.00;3.50;;;;;-146.67;100.00;57155.34;5082569;28;62730;-83
2022/04/22 00:53:57;;;;;;;;;4.75;4.00;;;;;-146.67;100.00;57155.34;5083767;28;61779;-83
2022/04/22 00:56:22;;;;;;;;;4.00;4.00;;;;;-146.67;100.00;57155.34;5083272;28;61954;-84
2022/04/22 00:58:49;;;;;;;;;4.00;3.75;;;;;-146.67;100.00;57155.34;5099281;27;61757;-84
2022/04/22 01:01:15;;;;;;;;;4.75;4.00;;;;;-146.67;100.00;57155.34;5082526;28;62653;-83
2022/04/22 01:12:06;;;;;;;;;3.25;2.00;;;;;-146.67;100.00;57155.34;5059782;28;62000;-83
2022/04/22 01:14:32;;;;;;;;;6.25;5.00;;;;;-146.67;100.00;57155.34;5060321;28;61873;-84
2022/04/22 01:17:00;;;;;;;;;3.75;3.75;;;;;-146.67;100.00;57155.34;5042882;28;61953;-84
2022/04/22 01:19:25;;;;;;;;;6.50;4.50;;;;;-146.67;100.00;57155.34;5060546;28;61904;-84
2022/04/22 01:21:51;;;;;;;;;4.00;3.00;;;;;-146.67;100.00;57155.34;5059930;28;62081;-84
2022/04/22 01:24:16;;;;;;;;;3.00;3.00;;;;;-146.67;100.00;57155.34;5043422;28;62211;-84
2022/04/22 01:26:43;;;;;;;;;4.50;3.00;;;;;-146.67;100.00;57155.34;5060361;28;61785;-84
2022/04/22 01:29:09;;;;;;;;;8.00;7.00;;;;;-146.67;100.00;57155.34;5043573;28;61914;-84
2022/04/22 01:31:34;;;;;;;;;4.25;3.00;;;;;-146.67;100.00;57155.34;5059051;28;62056;-83
2022/04/22 01:34:00;;;;;;;;;3.25;3.25;;;;;-146.67;100.00;57155.34;5060324;28;62354;-83
2022/04/22 01:36:25;;;;;;;;;4.75;3.50;;;;;-146.67;100.00;57155.34;5043140;28;61986;-83
2022/04/22 01:38:50;;;;;;;;;2.50;2.25;;;;;-146.67;100.00;57155.34;5059949;28;62244;-82
2022/04/22 01:41:16;;;;;;;;;4.50;3.25;;;;;-146.67;100.00;57155.34;5059642;28;62326;-83
2022/04/22 01:43:41;;;;;;;;;3.00;3.00;;;;;-146.67;100.00;57155.34;5074155;28;61972;-83
2022/04/22 01:46:07;;;;;;;;;4.25;4.25;;;;;-146.67;100.00;57155.34;5082727;27;62065;-82
2022/04/22 01:48:32;;;;;;;;;7.25;5.00;;;;;-146.67;100.00;57155.34;5083005;27;61886;-84
2022/04/22 01:50:58;;;;;;;;;2.75;2.75;;;;;-146.67;100.00;57155.34;5081982;27;62711;-82
2022/04/22 01:53:24;;;;;;;;;4.50;4.50;;;;;-146.67;100.00;57155.34;5082534;27;61915;-84
2022/04/22 01:55:49;;;;;;;;;3.75;3.00;;;;;-146.67;100.00;57155.34;5081205;28;61757;-84
2022/04/22 01:58:15;;;;;;;;;2.00;2.00;;;;;-146.67;100.00;57155.34;5083028;27;61743;-84
2022/04/22 02:00:40;;;;;;;;;3.00;3.00;;;;;-146.67;100.00;57155.34;5097304;27;63768;-84
2022/04/22 02:03:06;;;;;;;;;2.75;2.75;;;;;-146.67;100.00;57155.34;5082423;27;62070;-84
2022/04/22 02:05:33;;;;;;;;;4.75;3.50;;;;;-146.67;100.00;57155.34;5082399;27;61848;-83
2022/04/22 02:07:58;;;;;;;;;3.50;3.50;;;;;-146.67;100.00;57155.34;5081074;28;62210;-83
2022/04/22 02:10:24;;;;;;;;;8.50;5.75;;;;;-146.67;100.00;57155.34;5081895;27;61948;-83
2022/04/22 02:12:49;;;;;;;;;10.75;5.75;;;;;-146.67;100.00;57155.34;5081926;28;61971;-82
2022/04/22 02:15:16;;;;;;;;;4.25;4.25;;;;;-146.67;100.00;57155.34;5082478;27;61976;-83
2022/04/22 02:17:42;;;;;;;;;4.50;4.50;;;;;-146.67;100.00;57155.34;5082351;27;62140;-83
2022/04/22 02:20:08;;;;;;;;;3.25;3.25;;;;;-146.67;100.00;57155.34;5080435;28;63566;-84
2022/04/22 02:22:34;;;;;;;;;6.25;5.00;;;;;-146.67;100.00;57155.34;5082231;28;61839;-83
2022/04/22 02:25:00;;;;;;;;;6.50;3.25;;;;;-146.67;100.00;57155.34;5082581;27;62132;-83
2022/04/22 02:30:10;;;;;;;;;3.75;3.00;;;;;-146.67;100.00;57155.34;5088627;28;62121;-83
2022/04/22 02:32:35;;;;;;;;;3.75;3.00;;;;;-146.67;100.00;57155.34;5088892;27;61710;-84
2022/04/22 02:35:02;;;;;;;;;4.50;3.50;;;;;-146.67;100.00;57155.34;5089005;27;62552;-83
2022/04/22 02:37:27;;;;;;;;;7.50;3.75;;;;;-146.67;100.00;57155.34;5106926;27;61855;-84
2022/04/22 02:39:53;;;;;;;;;4.00;4.00;;;;;-146.67;100.00;57155.34;5102839;27;63680;-84
2022/04/22 02:47:46;;;;;;;;;3.75;3.00;;;;;-146.67;100.00;57155.34;5088798;28;61918;-84
2022/04/22 02:50:11;;;;;;;;;3.00;3.00;;;;;-146.67;100.00;57155.34;5103858;27;63785;-85
2022/04/22 02:52:37;;;;;;;;;7.25;4.25;;;;;-146.67;100.00;57155.34;5088665;27;62005;-84
2022/04/22 02:55:02;;;;;;;;;7.50;3.75;;;;;-146.67;100.00;57155.34;5104528;27;62113;-84
2022/04/22 02:57:28;;;;;;;;;4.00;4.00;;;;;-146.67;100.00;57155.34;5104494;27;62129;-84
2022/04/22 02:59:53;;;;;;;;;4.75;3.50;;;;;-146.67;100.00;57155.34;5087825;27;61880;-84
2022/04/22 03:02:19;;;;;;;;;5.00;4.25;;;;;-146.67;100.00;57155.34;5104290;27;61946;-83
2022/04/22 03:04:44;;;;;;;;;5.75;2.25;;;;;-146.67;100.00;57155.34;5088530;27;61805;-83
2022/04/22 03:07:10;;;;;;;;;3.00;3.00;;;;;-146.67;100.00;57155.34;5088705;27;61771;-83
2022/04/22 03:09:36;;;;;;;;;5.75;3.00;;;;;-146.67;100.00;57155.34;5087764;27;62602;-84
2022/04/22 03:12:01;;;;;;;;;6.25;4.25;;;;;-146.67;100.00;57155.34;5103904;27;62011;-84
2022/04/22 03:14:29;;;;;;;;;5.25;3.75;;;;;-146.67;100.00;57155.34;5104271;27;61838;-85
2022/04/22 03:16:55;;;;;;;;;5.00;3.00;;;;;-146.67;100.00;57155.34;5104008;27;62015;-85
2022/04/22 03:19:20;;;;;;;;;3.75;3.50;;;;;-146.67;100.00;57155.34;5088081;27;61708;-84
2022/04/22 03:21:45;;;;;;;;;3.00;3.00;;;;;-146.67;100.00;57155.34;5088163;27;61835;-84
2022/04/22 03:24:11;;;;;;;;;2.50;2.25;;;;;-146.67;100.00;57155.34;5104125;27;62445;-84
2022/04/22 03:26:37;;;;;;;;;3.00;3.00;;;;;-146.67;100.00;57155.34;5088513;27;61805;-84
2022/04/22 03:29:02;;;;;;;;;4.75;4.00;;;;;-146.67;100.00;57155.34;5087452;27;61778;-85
2022/04/22 03:31:27;;;;;;;;;4.25;4.25;;;;;-146.67;100.00;57155.34;5088045;27;61977;-83
2022/04/22 03:33:53;;;;;;;;;5.25;4.00;;;;;-146.67;100.00;57155.34;5088217;27;61836;-83
2022/04/22 03:36:18;;;;;;;;;7.00;5.00;;;;;-146.67;100.00;57155.34;5088429;27;61840;-83
2022/04/22 03:38:44;;;;;;;;;6.00;6.00;;;;;-146.67;100.00;57155.34;5096633;27;63957;-82
2022/04/22 03:41:12;;;;;;;;;11.00;8.00;;;;;-146.67;100.00;57155.34;5084491;27;61901;-83
2022/04/22 03:43:40;;;;;;;;;10.25;10.25;;;;;-146.67;100.00;57155.34;5083238;27;61961;-82
2022/04/22 03:46:05;;;;;;;;;14.75;13.75;;;;;-146.67;100.00;57155.34;5100358;27;62149;-83
2022/04/22 03:48:31;;;;;;;;;27.75;21.00;;;;;-146.67;100.00;57155.34;5084139;27;62751;-83
2022/04/22 03:50:56;;;;;;;;;23.50;20.25;;;;;-146.67;100.00;57155.34;5084513;27;61828;-83
2022/04/22 03:53:22;;;;;;;;;27.25;17.75;;;;;-146.67;100.00;57155.34;5100308;27;61990;-83
2022/04/22 03:55:47;;;;;;;;;31.50;23.75;;;;;-146.67;100.00;57155.34;5084558;27;62139;-83
2022/04/22 03:58:16;;;;;;;;;27.00;23.50;;;;;-146.67;100.00;57155.34;5083554;27;61802;-83
2022/04/22 04:00:51;;;;;;;;;29.75;23.50;;;;;-146.67;100.00;57155.34;5083156;28;62091;-83
2022/04/22 04:03:21;;;;;;;;;36.00;26.50;;;;;-146.67;100.00;57155.34;5082780;28;62002;-83
2022/04/22 04:05:51;;;;;;;;;32.50;30.25;;;;;-146.67;100.00;57155.34;5084606;27;61771;-84
2022/04/22 04:08:19;;;;;;;;;38.50;27.00;;;;;-146.67;100.00;57155.34;5116101;27;63985;-83
2022/04/22 04:16:27;;;;;;;;;31.75;25.50;;;;;-146.67;100.00;57155.34;5060681;27;62325;-84
2022/04/22 04:23:14;;;;;;;;;25.50;18.00;;;;;-146.67;100.00;57155.34;5083518;28;63257;-84
2022/04/22 04:24:22;;;;;;;;;37.00;27.50;;;;;-146.67;100.00;57155.34;5084106;28;62349;-84
2022/04/22 04:26:47;;;;;;;;;43.75;31.25;;;;;-146.67;100.00;57155.34;5084126;27;61938;-84
2022/04/22 04:29:13;;;;;;;;;34.25;27.50;;;;;-146.67;100.00;57155.34;5083333;27;62633;-84
2022/04/22 04:31:39;;;;;;;;;31.25;29.00;;;;;-146.67;100.00;57155.34;5083977;28;61891;-84
2022/04/22 04:34:04;;;;;;;;;31.00;24.25;;;;;-146.67;100.00;57155.34;5099448;27;62031;-84
2022/04/22 04:36:31;;;;;;;;;30.75;21.25;;;;;-146.67;100.00;57155.34;5084141;27;61989;-84
2022/04/22 04:38:57;;;;;;;;;30.75;21.25;;;;;-146.67;100.00;57155.34;5082593;27;62671;-84
2022/04/22 04:41:23;;;;;;;;;29.50;22.50;;;;;-146.67;100.00;57155.34;5083790;27;61789;-84
2022/04/22 04:43:48;;;;;;;;;24.00;19.25;;;;;-146.67;100.00;57155.34;5083911;27;62046;-84
2022/04/22 04:46:14;;;;;;;;;27.75;19.75;;;;;-146.67;100.00;57155.34;5099007;27;61750;-83
2022/04/22 04:48:39;;;;;;;;;26.50;20.00;;;;;-146.67;100.00;57155.34;5082514;28;61698;-83
2022/04/22 04:51:05;;;;;;;;;25.00;21.50;;;;;-146.67;100.00;57155.34;5083499;27;61894;-84
2022/04/22 04:53:31;;;;;;;;;26.50;19.00;;;;;-146.67;100.00;57155.34;5083511;27;61713;-84
2022/04/22 04:55:57;;;;;;;;;20.50;20.50;;;;;-146.67;100.00;57155.34;5083920;27;61861;-84
2022/04/22 04:58:24;;;;;;;;;19.50;18.50;;;;;-146.67;100.00;57155.34;5082825;28;62786;-84
2022/04/22 05:00:54;;;;;;;;;27.00;19.25;;;;;-146.67;100.00;57155.34;5083701;27;62153;-83
2022/04/22 05:03:20;;;;;;;;;21.75;16.00;;;;;-146.67;100.00;57155.34;5083298;28;62218;-83
2022/04/22 05:05:45;;;;;;;;;17.50;16.00;;;;;-146.67;100.00;57155.34;5083824;27;62002;-84
2022/04/22 05:08:10;;;;;;;;;17.75;14.00;;;;;-146.67;100.00;57155.34;5082067;27;62125;-82
2022/04/22 05:10:37;;;;;;;;;28.25;21.25;;;;;-146.67;100.00;57155.34;5087441;27;61921;-83
2022/04/22 05:13:04;;;;;;;;;17.75;17.25;;;;;-146.67;100.00;57155.34;5083458;27;62073;-83
2022/04/22 05:15:31;;;;;;;;;20.25;17.75;;;;;-146.67;100.00;57155.34;5082951;27;61874;-82
2022/04/22 05:17:58;;;;;;;;;22.75;17.50;;;;;-146.67;100.00;57155.34;5081663;27;62138;-83
2022/04/22 05:20:27;;;;;;;;;26.25;18.00;;;;;-146.67;100.00;57155.34;5082043;27;61850;-82
2022/04/22 05:22:53;;;;;;;;;20.50;20.25;;;;;-146.67;100.00;57155.34;5083287;27;61782;-83
2022/04/22 05:25:20;;;;;;;;;25.75;20.50;;;;;-146.67;100.00;57155.34;5083361;27;61960;-83
2022/04/22 05:27:45;;;;;;;;;20.75;16.00;;;;;-146.67;100.00;57155.34;5098030;27;63824;-82
2022/04/22 05:32:57;;;;;;;;;33.00;22.25;;;;;-146.67;100.00;57155.34;5082108;28;61758;-82
2022/04/22 05:35:27;;;;;;;;;27.50;23.75;;;;;-146.67;100.00;57155.34;5082388;27;61917;-81
2022/04/22 05:37:55;;;;;;;;;30.00;28.50;;;;;-146.67;100.00;57155.34;5081139;27;61915;-81
2022/04/22 05:40:22;;;;;;;;;26.50;23.75;;;;;-146.67;100.00;57155.34;5084398;27;61885;-83
2022/04/22 05:42:50;;;;;;;;;29.75;25.25;;;;;-146.67;100.00;57155.34;5081675;27;61926;-81
2022/04/22 05:45:16;;;;;;;;;22.75;20.25;;;;;-146.67;100.00;57155.34;5082908;27;62117;-78
2022/04/22 05:47:43;;;;;;;;;29.50;21.50;;;;;-146.67;100.00;57155.34;5081869;27;62198;-77
2022/04/22 05:50:10;;;;;;;;;25.50;24.50;;;;;-146.67;100.00;57155.34;5084965;27;61864;-76
2022/04/22 05:52:37;;;;;;;;;27.00;22.75;;;;;-146.67;100.00;57155.34;5079934;28;61890;-77
2022/04/22 05:55:05;;;;;;;;;29.00;21.75;;;;;-146.67;100.00;57155.34;5082109;27;62110;-78
2022/04/22 05:57:31;;;;;;;;;24.75;21.25;;;;;-146.67;100.00;57155.34;5081600;27;61751;-79
2022/04/22 05:59:58;;;;;;;;;31.25;24.75;;;;;-146.67;100.00;57155.34;5097015;27;61931;-79
2022/04/22 06:02:26;;;;;;;;;31.00;25.25;;;;;-146.67;100.00;57155.34;5080356;27;62040;-78
2022/04/22 06:04:52;;;;;;;;;30.75;23.50;;;;;-146.67;100.00;57155.34;5081385;28;61829;-80
2022/04/22 06:07:18;;;;;;;;;30.75;25.75;;;;;-146.67;100.00;57155.34;5096738;27;63602;-78
2022/04/22 06:12:27;;;;;;;;;37.25;25.50;;;;;-146.67;100.00;57155.34;5081531;28;61857;-79
2022/04/22 06:14:53;;;;;;;;;25.00;24.50;;;;;-146.67;100.00;57155.34;5081889;27;62080;-75
2022/04/22 06:17:19;;;;;;;;;30.50;26.25;;;;;-146.67;100.00;57155.34;5096909;27;62509;-77
2022/04/22 06:19:44;;;;;;;;;31.25;25.75;;;;;-146.67;100.00;57155.34;5081207;28;61703;-75
2022/04/22 06:22:10;;;;;;;;;25.50;23.25;;;;;-146.67;100.00;57155.34;5097473;27;61916;-75
2022/04/22 06:24:35;;;;;;;;;29.25;26.75;;;;;-146.67;100.00;57155.34;5075625;27;62031;-77
2022/04/22 06:27:00;;;;;;;;;29.00;22.25;;;;;-146.67;100.00;57155.34;5077881;27;61873;-81
2022/04/22 06:29:26;;;;;;;;;30.25;23.00;;;;;-146.67;100.00;57155.34;5081175;27;61862;-75
2022/04/22 06:31:54;;;;;;;;;31.25;27.50;;;;;-146.67;100.00;57155.34;5081359;27;61969;-77
2022/04/22 06:34:22;;;;;;;;;19.50;16.50;;;;;-146.67;100.00;57155.34;5080577;28;61759;-78
2022/04/22 06:36:48;;;;;;;;;24.50;15.25;;;;;-146.67;100.00;57155.34;5080184;27;61925;-78
2022/04/22 06:39:14;;;;;;;;;23.75;20.00;;;;;-146.67;100.00;57155.34;5079138;27;61799;-77
2022/04/22 06:47:10;;;;;;;;;16.25;13.50;;;;;-146.67;100.00;57155.34;5080690;28;61860;-78
2022/04/22 06:49:35;;;;;;;;;15.25;15.00;;;;;-146.67;100.00;57155.34;5080517;27;61835;-78
2022/04/22 06:52:01;;;;;;;;;16.50;14.50;;;;;-146.67;100.00;57155.34;5080983;27;61816;-77
2022/04/22 06:54:27;;;;;;;;;17.25;14.75;;;;;-146.67;100.00;57155.34;5081300;27;61950;-79
2022/04/22 06:56:53;;;;;;;;;18.75;12.75;;;;;-146.67;100.00;57155.34;5082293;27;61797;-79
2022/04/22 06:59:21;;;;;;;;;20.00;15.25;;;;;-146.67;100.00;57155.34;5072900;28;61880;-78
2022/04/22 07:01:47;;;;;;;;;15.25;13.75;;;;;-146.67;100.00;57155.34;5066032;27;61855;-79
2022/04/22 07:04:14;;;;;;;;;15.00;13.50;;;;;-146.67;100.00;57155.34;5076369;28;62088;-78
2022/04/22 07:06:39;;;;;;;;;10.75;10.75;;;;;-146.67;100.00;57155.34;5079352;28;62060;-80
2022/04/22 07:09:05;;;;;;;;;11.25;11.25;;;;;-146.67;100.00;57155.34;5080848;27;61987;-77
2022/04/22 07:11:34;;;;;;;;;10.00;8.50;;;;;-146.67;100.00;57155.34;5081197;28;61871;-77
2022/04/22 07:14:01;;;;;;;;;13.25;10.75;;;;;-146.67;100.00;57155.34;5082685;28;61905;-84
2022/04/22 07:16:27;;;;;;;;;9.00;9.00;;;;;-146.67;100.00;57155.34;5098593;27;63591;-80
2022/04/22 07:18:53;;;;;;;;;8.50;7.25;;;;;-146.67;100.00;57155.34;5083770;28;62019;-83
2022/04/22 07:21:18;;;;;;;;;6.25;6.25;;;;;-146.67;100.00;57155.34;5084812;27;61869;-78
2022/04/22 07:23:44;;;;;;;;;8.75;6.00;;;;;-146.67;100.00;57155.34;5100211;27;62196;-80
2022/04/22 07:26:10;;;;;;;;;7.50;5.50;;;;;-146.67;100.00;57155.34;5084037;27;62819;-81
2022/04/22 07:28:38;;;;;;;;;9.00;8.00;;;;;-146.67;100.00;57155.34;5084570;27;62046;-80
2022/04/22 07:31:04;;;;;;;;;4.25;4.25;;;;;-146.67;100.00;57155.34;5084602;27;62053;-80
2022/04/22 07:33:31;;;;;;;;;10.25;6.50;;;;;-146.67;100.00;57155.34;5083967;28;61955;-79
2022/04/22 07:35:57;;;;;;;;;9.00;5.75;;;;;-146.67;100.00;57155.34;5082003;28;64850;-84
2022/04/22 07:38:24;;;;;;;;;7.00;5.50;;;;;-146.67;100.00;57155.34;5083307;27;63711;-81
2022/04/22 07:40:51;;;;;;;;;8.25;7.00;;;;;-146.67;100.00;57155.34;5084400;27;61868;-79
2022/04/22 07:48:55;;;;;;;;;6.25;6.00;;;;;-146.67;100.00;57155.34;5083443;28;61834;-78
2022/04/22 07:51:24;;;;;;;;;7.00;4.25;;;;;-146.67;100.00;57155.34;5084375;27;61889;-79
2022/04/22 07:53:49;;;;;;;;;6.50;6.25;;;;;-146.67;100.00;57155.34;5083630;27;61873;-83
2022/04/22 07:56:15;;;;;;;;;10.25;7.00;;;;;-146.67;100.00;57155.34;5083297;28;62561;-81
2022/04/22 07:58:40;;;;;;;;;6.25;6.25;;;;;-146.67;100.00;57155.34;5084477;28;61804;-82
2022/04/22 08:01:06;;;;;;;;;9.25;9.25;;;;;-146.67;100.00;57155.34;5083900;27;62493;-82
2022/04/22 08:03:32;;;;;;;;;10.25;6.00;;;;;-146.67;100.00;57155.34;5083466;27;61714;-81
2022/04/22 08:05:57;;;;;;;;;9.00;4.75;;;;;-146.67;100.00;57155.34;5082497;27;62795;-81
2022/04/22 08:08:24;;;;;;;;;7.50;7.00;;;;;-146.67;100.00;57155.34;5083508;27;61871;-82
2022/04/22 08:10:49;;;;;;;;;6.00;5.00;;;;;-146.67;100.00;57155.34;5084016;27;61908;-82
2022/04/22 08:13:15;;;;;;;;;10.00;6.75;;;;;-146.67;100.00;57155.34;5084315;27;61797;-84
2022/04/22 08:15:40;;;;;;;;;9.50;8.00;;;;;-146.67;100.00;57155.34;5082797;27;61788;-82
2022/04/22 08:18:06;;;;;;;;;8.25;8.25;;;;;-146.67;100.00;57155.34;5099292;27;61745;-82
2022/04/22 08:20:33;;;;;;;;;6.25;6.25;;;;;-146.67;100.00;57155.34;5083770;27;61823;-81
2022/04/22 08:23:02;;;;;;;;;9.50;7.75;;;;;-146.67;100.00;57155.34;5083370;27;61775;-80
2022/04/22 08:25:28;;;;;;;;;6.00;6.00;;;;;-146.67;100.00;57155.34;5082559;28;63120;-82
2022/04/22 08:27:53;;;;;;;;;9.25;7.00;;;;;-146.67;100.00;57155.34;5081646;27;61824;-80
2022/04/22 08:30:19;;;;;;;;;8.50;7.00;;;;;-146.67;100.00;57155.34;5099091;27;61881;-80
2022/04/22 08:32:45;;;;;;;;;8.75;7.00;;;;;-146.67;100.00;57155.34;5083610;27;62134;-80
2022/04/22 08:35:10;;;;;;;;;7.00;4.75;;;;;-146.67;100.00;57155.34;5081362;28;64045;-81
2022/04/22 08:37:37;;;;;;;;;5.00;5.00;;;;;-146.67;100.00;57155.34;5083852;27;61766;-81
2022/04/22 08:40:06;;;;;;;;;6.75;5.00;;;;;-146.67;100.00;57155.34;5083171;27;61877;-81
2022/04/22 08:42:34;;;;;;;;;5.00;4.00;;;;;-146.67;100.00;57155.34;5081917;28;62221;-81
2022/04/22 08:45:00;;;;;;;;;8.75;5.50;;;;;-146.67;100.00;57155.34;5081897;28;61932;-86
2022/04/22 08:50:13;;;;;;;;;6.00;5.00;;;;;-146.67;100.00;57155.34;5083124;28;61813;-79
2022/04/22 08:52:42;;;;;;;;;6.25;6.25;;;;;-146.67;100.00;57155.34;5082036;27;62107;-80
2022/04/22 08:55:08;;;;;;;;;7.25;5.75;;;;;-146.67;100.00;57155.34;5082384;27;61857;-79
2022/04/22 08:57:34;;;;;;;;;5.50;4.00;;;;;-146.67;100.00;57155.34;5083329;27;61747;-78
2022/04/22 09:00:02;;;;;;;;;3.75;3.00;;;;;-146.67;100.00;57155.34;5083419;28;61675;-80
2022/04/22 09:02:28;;;;;;;;;6.50;5.25;;;;;-146.67;100.00;57155.34;5083420;28;61980;-80
2022/04/22 09:04:54;;;;;;;;;5.75;3.50;;;;;-146.67;100.00;57155.34;5082741;27;62811;-80
2022/04/22 09:07:22;;;;;;;;;5.50;5.50;;;;;-146.67;100.00;57155.34;5082905;27;61986;-77
2022/04/22 09:09:49;;;;;;;;;6.25;5.75;;;;;-146.67;100.00;57155.34;5082263;28;62097;-78
2022/04/22 09:12:19;;;;;;;;;8.00;5.50;;;;;-146.67;100.00;57155.34;5083335;28;61858;-79
2022/04/22 09:14:49;;;;;;;;;8.50;5.00;;;;;-146.67;100.00;57155.34;5082432;27;61867;-78
2022/04/22 09:17:41;;;;;;;;;11.50;5.00;;;;;-146.67;100.00;57155.34;5082825;27;62255;-79
2022/04/22 09:20:13;;;;;;;;;5.75;3.75;;;;;-146.67;100.00;57155.34;5080679;27;62203;-79
2022/04/22 09:22:38;;;;;;;;;5.50;3.75;;;;;-146.67;100.00;57155.34;5082112;27;61957;-78
2022/04/22 09:25:07;;;;;;;;;2.50;2.50;;;;;-146.67;100.00;57155.34;5097597;27;65083;-78
2022/04/22 09:27:33;;;;;;;;;2.00;2.00;;;;;-146.67;100.00;57155.34;5089612;27;61997;-80
2022/04/22 09:30:00;;;;;;;;;6.75;4.50;;;;;-146.67;100.00;57155.34;5079027;28;61777;-80
2022/04/22 09:32:30;;;;;;;;;5.00;4.00;;;;;-146.67;100.00;57155.34;5088132;27;61777;-80
2022/04/22 09:35:17;;;;;;;;;3.25;3.25;;;;;-146.67;100.00;57155.34;5094045;27;63731;-80
2022/04/22 09:43:21;;;;;;;;;5.00;4.50;;;;;-146.67;100.00;57155.34;5081994;28;61957;-82
2022/04/22 09:45:47;;;;;;;;;4.00;3.00;;;;;-146.67;100.00;57155.34;5069043;28;61845;-82
2022/04/22 09:48:14;;;;;;;;;4.00;2.50;;;;;-146.67;100.00;57155.34;5063715;28;61831;-79
2022/04/22 09:50:42;;;;;;;;;7.75;3.00;;;;;-146.67;100.00;57155.34;5076457;28;61820;-79
2022/04/22 09:53:10;;;;;;;;;5.25;4.00;;;;;-146.67;100.00;57155.34;5081855;27;62024;-82
2022/04/22 09:55:54;;;;;;;;;4.25;4.25;;;;;-146.67;100.00;57155.34;5079933;28;64934;-82
2022/04/22 09:58:22;;;;;;;;;3.50;3.50;;;;;-146.67;100.00;57155.34;5089829;27;61927;-81
2022/04/22 10:01:00;;;;;;;;;9.00;5.00;;;;;-146.67;100.00;57155.34;5061798;28;62235;-83
2022/04/22 10:03:41;;;;;;;;;3.50;3.50;;;;;-146.67;100.00;57155.34;5080458;28;62178;-81
2022/04/22 10:06:07;;;;;;;;;3.00;3.00;;;;;-146.67;100.00;57155.34;5071107;28;63783;-81
2022/04/22 10:08:37;;;;;;;;;4.00;3.25;;;;;-146.67;100.00;57155.34;5107701;27;61854;-78
2022/04/22 10:11:05;;;;;;;;;3.00;2.00;;;;;-146.67;100.00;57155.34;5096619;27;61887;-81
2022/04/22 10:13:34;;;;;;;;;3.00;3.00;;;;;-146.67;100.00;57155.34;5114560;27;61863;-82
2022/04/22 10:16:01;;;;;;;;;6.00;4.75;;;;;-146.67;100.00;57155.34;5081625;27;61797;-80
2022/04/22 10:18:26;;;;;;;;;3.00;3.00;;;;;-146.67;100.00;57155.34;5080221;28;61944;-78
2022/04/22 10:20:53;;;;;;;;;2.50;2.50;;;;;-146.67;100.00;57155.34;5071894;28;62077;-80
2022/04/22 10:23:19;;;;;;;;;3.00;3.00;;;;;-146.67;100.00;57155.34;5061712;28;61848;-80
2022/04/22 10:25:45;;;;;;;;;5.00;3.50;;;;;-146.67;100.00;57155.34;5093743;27;63915;-80
2022/04/22 10:28:12;;;;;;;;;3.00;3.00;;;;;-146.67;100.00;57155.34;5061991;27;61918;-79
2022/04/22 10:30:40;;;;;;;;;3.00;3.00;;;;;-146.67;100.00;57155.34;5060635;28;62016;-82
2022/04/22 10:33:08;;;;;;;;;4.00;3.00;;;;;-146.67;100.00;57155.34;5060335;28;61798;-82
2022/04/22 10:35:41;;;;;;;;;2.75;2.00;;;;;-146.67;100.00;57155.34;5069662;28;62761;-82
2022/04/22 10:38:27;;;;;;;;;3.00;3.00;;;;;-146.67;100.00;57155.34;5061386;28;61946;-83
2022/04/22 10:40:53;;;;;;;;;3.00;3.00;;;;;-146.67;100.00;57155.34;5061492;28;61666;-83
2022/04/22 10:43:19;;;;;;;;;2.00;2.00;;;;;-146.67;100.00;57155.34;5061660;28;61796;-81
2022/04/22 10:48:30;;;;;;;;;3.50;2.00;;;;;-146.67;100.00;57155.34;5064919;28;61941;-81
2022/04/22 10:51:00;;;;;;;;;1.25;1.25;;;;;-146.67;100.00;57155.34;5085461;27;62018;-80
2022/04/22 10:53:34;;;;;;;;;3.00;3.00;;;;;-146.67;100.00;57155.34;5085424;27;61795;-80
2022/04/22 10:56:29;;;;;;;;;6.75;4.00;;;;;-146.67;100.00;57155.34;5100436;27;64134;-80
2022/04/22 10:59:18;;;;;;;;;2.50;2.50;;;;;-146.67;100.00;57155.34;5105441;27;61864;-82
2022/04/22 11:01:43;;;;;;;;;2.25;2.00;;;;;-146.67;100.00;57155.34;5102270;27;62014;-82
2022/04/22 11:04:26;;;;;;;;;4.00;3.00;;;;;-146.67;100.00;57155.34;5085588;28;61873;-80
2022/04/22 11:06:52;;;;;;;;;4.00;4.00;;;;;-146.67;100.00;57155.34;5110474;27;63769;-81
2022/04/22 11:09:29;;;;;;;;;2.00;2.00;;;;;-146.67;100.00;57155.34;5067675;28;61890;-81
2022/04/22 11:11:55;;;;;;;;;5.25;3.50;;;;;-146.67;100.00;57155.34;5078811;28;61810;-84
2022/04/22 11:14:23;;;;;;;;;3.75;2.75;;;;;-146.67;100.00;57155.34;5082881;28;62091;-84
2022/04/22 11:16:49;;;;;;;;;4.75;3.00;;;;;-146.67;100.00;57155.34;5099455;27;63961;-82
2022/04/22 11:19:18;;;;;;;;;2.25;2.25;;;;;-146.67;100.00;57155.34;5083903;27;61867;-78
2022/04/22 11:21:50;;;;;;;;;6.00;3.50;;;;;-146.67;100.00;57155.34;5084374;27;62107;-77
2022/04/22 11:24:34;;;;;;;;;4.00;2.50;;;;;-146.67;100.00;57155.34;5081539;28;61922;-77
2022/04/22 11:27:05;;;;;;;;;6.50;3.00;;;;;-146.67;100.00;57155.34;5081672;28;61819;-78
2022/04/22 11:29:31;;;;;;;;;6.25;2.50;;;;;-146.67;100.00;57155.34;5082815;27;62024;-78
2022/04/22 11:32:06;;;;;;;;;2.25;2.00;;;;;-146.67;100.00;57155.34;5084352;27;61825;-79
2022/04/22 11:34:59;;;;;;;;;5.00;3.00;;;;;-146.67;100.00;57155.34;5080215;28;61757;-82
2022/04/22 11:37:26;;;;;;;;;24.75;20.50;;;;;-146.67;100.00;57155.34;5082609;28;61979;-81
2022/04/22 11:39:51;;;;;;;;;8.00;8.00;;;;;-146.67;100.00;57155.34;5097496;27;61905;-81
2022/04/22 11:42:18;;;;;;;;;3.00;3.00;;;;;-146.67;100.00;57155.34;5083833;27;62330;-82
2022/04/22 11:45:00;;;;;;;;;6.00;3.00;;;;;-146.67;100.00;57155.34;5082097;27;62089;-82
2022/04/22 11:47:25;;;;;;;;;4.75;3.25;;;;;-146.67;100.00;57155.34;5081079;28;62922;-82
2022/04/22 11:49:51;;;;;;;;;7.00;2.00;;;;;-146.67;100.00;57155.34;5098648;27;62017;-82
2022/04/22 11:52:16;;;;;;;;;3.25;1.00;;;;;-146.67;100.00;57155.34;5084025;28;61856;-82
2022/04/22 11:54:42;;;;;;;;;1.50;1.50;;;;;-146.67;100.00;57155.34;5099350;27;62231;-83
2022/04/22 11:57:07;;;;;;;;;3.75;2.50;;;;;-146.67;100.00;57155.34;5082737;27;63081;-83